sensor_id;sensor_type;location;lat;lon;timestamp;temperature;humidity
53208;DHT22;39093;52.788;6.940;2023-06-14T00:00:56;19.30;65.70
53208;DHT22;39093;52.788;6.940;2023-06-14T00:03:23;19.20;65.60
53208;DHT22;39093;52.788;6.940;2023-06-14T00:05:51;19.10;65.80
53208;DHT22;39093;52.788;6.940;2023-06-14T00:08:18;19.10;66.00
53208;DHT22;39093;52.788;6.940;2023-06-14T00:10:47;19.00;65.90
53208;DHT22;39093;52.788;6.940;2023-06-14T00:13:14;19.00;66.40
53208;DHT22;39093;52.788;6.940;2023-06-14T00:15:41;18.90;66.30
53208;DHT22;39093;52.788;6.940;2023-06-14T00:18:09;18.90;66.00
53208;DHT22;39093;52.788;6.940;2023-06-14T00:20:38;18.90;66.50
53208;DHT22;39093;52.788;6.940;2023-06-14T00:23:08;18.80;66.40
53208;DHT22;39093;52.788;6.940;2023-06-14T00:25:36;18.70;66.80
53208;DHT22;39093;52.788;6.940;2023-06-14T00:28:03;18.70;66.90
53208;DHT22;39093;52.788;6.940;2023-06-14T00:30:30;18.60;67.00
53208;DHT22;39093;52.788;6.940;2023-06-14T00:32:58;18.60;66.90
53208;DHT22;39093;52.788;6.940;2023-06-14T00:35:25;18.50;67.40
53208;DHT22;39093;52.788;6.940;2023-06-14T00:37:52;18.50;67.70
53208;DHT22;39093;52.788;6.940;2023-06-14T00:40:21;18.50;67.70
53208;DHT22;39093;52.788;6.940;2023-06-14T00:42:48;18.50;67.90
53208;DHT22;39093;52.788;6.940;2023-06-14T00:45:15;18.40;68.00
53208;DHT22;39093;52.788;6.940;2023-06-14T00:47:43;18.40;68.20
53208;DHT22;39093;52.788;6.940;2023-06-14T00:50:11;18.30;68.50
53208;DHT22;39093;52.788;6.940;2023-06-14T00:52:39;18.40;68.50
53208;DHT22;39093;52.788;6.940;2023-06-14T00:55:06;18.30;68.40
53208;DHT22;39093;52.788;6.940;2023-06-14T00:57:33;18.30;68.30
53208;DHT22;39093;52.788;6.940;2023-06-14T01:00:04;18.30;68.50
53208;DHT22;39093;52.788;6.940;2023-06-14T01:02:38;18.30;68.50
53208;DHT22;39093;52.788;6.940;2023-06-14T01:05:06;18.30;68.90
53208;DHT22;39093;52.788;6.940;2023-06-14T01:08:11;18.20;69.10
53208;DHT22;39093;52.788;6.940;2023-06-14T01:10:51;18.20;69.30
53208;DHT22;39093;52.788;6.940;2023-06-14T01:13:38;18.20;69.00
53208;DHT22;39093;52.788;6.940;2023-06-14T01:16:06;18.10;69.80
53208;DHT22;39093;52.788;6.940;2023-06-14T01:18:34;18.00;69.80
53208;DHT22;39093;52.788;6.940;2023-06-14T01:21:02;18.00;69.90
53208;DHT22;39093;52.788;6.940;2023-06-14T01:23:33;18.00;69.90
53208;DHT22;39093;52.788;6.940;2023-06-14T01:26:01;18.00;70.10
53208;DHT22;39093;52.788;6.940;2023-06-14T01:28:31;18.00;70.50
53208;DHT22;39093;52.788;6.940;2023-06-14T01:31:02;17.90;70.60
53208;DHT22;39093;52.788;6.940;2023-06-14T01:33:33;17.90;70.70
53208;DHT22;39093;52.788;6.940;2023-06-14T01:36:02;17.90;70.60
53208;DHT22;39093;52.788;6.940;2023-06-14T01:38:30;17.80;70.70
53208;DHT22;39093;52.788;6.940;2023-06-14T01:40:59;17.70;71.30
53208;DHT22;39093;52.788;6.940;2023-06-14T01:43:30;17.70;71.60
53208;DHT22;39093;52.788;6.940;2023-06-14T01:45:57;17.70;71.40
53208;DHT22;39093;52.788;6.940;2023-06-14T01:48:26;17.70;71.50
53208;DHT22;39093;52.788;6.940;2023-06-14T01:50:53;17.70;71.80
53208;DHT22;39093;52.788;6.940;2023-06-14T01:53:20;17.60;71.90
53208;DHT22;39093;52.788;6.940;2023-06-14T01:55:47;17.60;72.00
53208;DHT22;39093;52.788;6.940;2023-06-14T01:58:15;17.60;72.10
53208;DHT22;39093;52.788;6.940;2023-06-14T02:00:45;17.50;72.10
53208;DHT22;39093;52.788;6.940;2023-06-14T02:03:14;17.50;72.90
53208;DHT22;39093;52.788;6.940;2023-06-14T02:05:42;17.40;73.20
53208;DHT22;39093;52.788;6.940;2023-06-14T02:08:10;17.40;73.10
53208;DHT22;39093;52.788;6.940;2023-06-14T02:10:36;17.40;73.30
53208;DHT22;39093;52.788;6.940;2023-06-14T02:13:03;17.40;73.50
53208;DHT22;39093;52.788;6.940;2023-06-14T02:15:30;17.40;74.00
53208;DHT22;39093;52.788;6.940;2023-06-14T02:18:04;17.40;73.60
53208;DHT22;39093;52.788;6.940;2023-06-14T02:20:32;17.30;74.20
53208;DHT22;39093;52.788;6.940;2023-06-14T02:23:00;17.30;74.00
53208;DHT22;39093;52.788;6.940;2023-06-14T02:25:27;17.30;74.20
53208;DHT22;39093;52.788;6.940;2023-06-14T02:27:56;17.20;74.70
53208;DHT22;39093;52.788;6.940;2023-06-14T02:30:23;17.20;74.60
53208;DHT22;39093;52.788;6.940;2023-06-14T02:32:50;17.20;74.70
53208;DHT22;39093;52.788;6.940;2023-06-14T02:35:18;17.20;74.90
53208;DHT22;39093;52.788;6.940;2023-06-14T02:37:44;17.10;75.00
53208;DHT22;39093;52.788;6.940;2023-06-14T02:40:12;17.10;74.80
53208;DHT22;39093;52.788;6.940;2023-06-14T02:42:40;17.00;75.40
53208;DHT22;39093;52.788;6.940;2023-06-14T02:45:07;17.00;75.40
53208;DHT22;39093;52.788;6.940;2023-06-14T02:47:35;17.00;76.00
53208;DHT22;39093;52.788;6.940;2023-06-14T02:50:02;17.00;76.00
53208;DHT22;39093;52.788;6.940;2023-06-14T02:52:29;16.90;76.00
53208;DHT22;39093;52.788;6.940;2023-06-14T02:54:56;16.90;76.20
53208;DHT22;39093;52.788;6.940;2023-06-14T02:57:23;16.90;76.30
53208;DHT22;39093;52.788;6.940;2023-06-14T02:59:50;16.90;76.30
53208;DHT22;39093;52.788;6.940;2023-06-14T03:02:18;16.80;76.70
53208;DHT22;39093;52.788;6.940;2023-06-14T03:04:48;16.80;76.60
53208;DHT22;39093;52.788;6.940;2023-06-14T03:07:15;16.80;77.30
53208;DHT22;39093;52.788;6.940;2023-06-14T03:09:48;16.80;77.00
53208;DHT22;39093;52.788;6.940;2023-06-14T03:12:16;16.80;77.20
53208;DHT22;39093;52.788;6.940;2023-06-14T03:14:43;16.80;77.40
53208;DHT22;39093;52.788;6.940;2023-06-14T03:17:13;16.70;77.30
53208;DHT22;39093;52.788;6.940;2023-06-14T03:19:40;16.70;77.20
53208;DHT22;39093;52.788;6.940;2023-06-14T03:22:08;16.70;77.60
53208;DHT22;39093;52.788;6.940;2023-06-14T03:24:35;16.70;77.90
53208;DHT22;39093;52.788;6.940;2023-06-14T03:27:04;16.70;77.80
53208;DHT22;39093;52.788;6.940;2023-06-14T03:29:31;16.70;78.20
53208;DHT22;39093;52.788;6.940;2023-06-14T03:32:02;16.60;78.20
53208;DHT22;39093;52.788;6.940;2023-06-14T03:34:29;16.60;78.60
53208;DHT22;39093;52.788;6.940;2023-06-14T03:36:57;16.60;78.80
53208;DHT22;39093;52.788;6.940;2023-06-14T03:39:24;16.60;79.00
53208;DHT22;39093;52.788;6.940;2023-06-14T03:41:50;16.50;78.60
53208;DHT22;39093;52.788;6.940;2023-06-14T03:44:18;16.60;79.30
53208;DHT22;39093;52.788;6.940;2023-06-14T03:46:46;16.50;78.70
53208;DHT22;39093;52.788;6.940;2023-06-14T03:49:13;16.40;79.10
53208;DHT22;39093;52.788;6.940;2023-06-14T03:51:40;16.40;79.70
53208;DHT22;39093;52.788;6.940;2023-06-14T03:54:07;16.40;79.20
53208;DHT22;39093;52.788;6.940;2023-06-14T03:56:37;16.40;79.20
53208;DHT22;39093;52.788;6.940;2023-06-14T03:59:07;16.40;79.60
53208;DHT22;39093;52.788;6.940;2023-06-14T04:01:34;16.40;79.70
53208;DHT22;39093;52.788;6.940;2023-06-14T04:04:01;16.40;79.30
53208;DHT22;39093;52.788;6.940;2023-06-14T04:06:28;16.30;79.80
53208;DHT22;39093;52.788;6.940;2023-06-14T04:08:59;16.30;80.10
53208;DHT22;39093;52.788;6.940;2023-06-14T04:11:28;16.30;80.10
53208;DHT22;39093;52.788;6.940;2023-06-14T04:13:55;16.30;80.10
53208;DHT22;39093;52.788;6.940;2023-06-14T04:16:23;16.30;80.40
53208;DHT22;39093;52.788;6.940;2023-06-14T04:18:50;16.30;80.30
53208;DHT22;39093;52.788;6.940;2023-06-14T04:21:19;16.30;81.40
53208;DHT22;39093;52.788;6.940;2023-06-14T04:23:46;16.30;81.00
53208;DHT22;39093;52.788;6.940;2023-06-14T04:26:13;16.30;80.90
53208;DHT22;39093;52.788;6.940;2023-06-14T04:28:41;16.30;80.80
53208;DHT22;39093;52.788;6.940;2023-06-14T04:31:08;16.30;80.70
53208;DHT22;39093;52.788;6.940;2023-06-14T04:33:38;16.20;81.30
53208;DHT22;39093;52.788;6.940;2023-06-14T04:36:10;16.30;81.70
53208;DHT22;39093;52.788;6.940;2023-06-14T04:38:40;16.30;82.10
53208;DHT22;39093;52.788;6.940;2023-06-14T04:41:09;16.40;81.60
53208;DHT22;39093;52.788;6.940;2023-06-14T04:43:38;16.40;81.80
53208;DHT22;39093;52.788;6.940;2023-06-14T04:46:05;16.40;82.00
53208;DHT22;39093;52.788;6.940;2023-06-14T04:48:39;16.40;82.40
53208;DHT22;39093;52.788;6.940;2023-06-14T04:51:08;16.40;82.20
53208;DHT22;39093;52.788;6.940;2023-06-14T04:53:35;16.50;81.80
53208;DHT22;39093;52.788;6.940;2023-06-14T04:56:03;16.40;81.30
53208;DHT22;39093;52.788;6.940;2023-06-14T04:58:30;16.40;81.60
53208;DHT22;39093;52.788;6.940;2023-06-14T05:00:59;16.40;82.30
53208;DHT22;39093;52.788;6.940;2023-06-14T05:03:26;16.40;82.20
53208;DHT22;39093;52.788;6.940;2023-06-14T05:05:54;16.40;81.70
53208;DHT22;39093;52.788;6.940;2023-06-14T05:08:22;16.40;82.50
53208;DHT22;39093;52.788;6.940;2023-06-14T05:10:52;16.50;82.00
53208;DHT22;39093;52.788;6.940;2023-06-14T05:13:19;16.50;81.90
53208;DHT22;39093;52.788;6.940;2023-06-14T05:15:47;16.50;82.00
53208;DHT22;39093;52.788;6.940;2023-06-14T05:18:15;16.50;82.30
53208;DHT22;39093;52.788;6.940;2023-06-14T05:20:43;16.50;81.90
53208;DHT22;39093;52.788;6.940;2023-06-14T05:23:10;16.60;82.10
53208;DHT22;39093;52.788;6.940;2023-06-14T05:25:46;16.60;81.70
53208;DHT22;39093;52.788;6.940;2023-06-14T05:28:13;16.60;82.90
53208;DHT22;39093;52.788;6.940;2023-06-14T05:30:40;16.70;81.90
53208;DHT22;39093;52.788;6.940;2023-06-14T05:33:07;16.70;81.40
53208;DHT22;39093;52.788;6.940;2023-06-14T05:35:34;16.70;81.20
53208;DHT22;39093;52.788;6.940;2023-06-14T05:38:04;16.80;81.30
53208;DHT22;39093;52.788;6.940;2023-06-14T05:40:32;16.80;81.40
53208;DHT22;39093;52.788;6.940;2023-06-14T05:42:59;16.90;81.50
53208;DHT22;39093;52.788;6.940;2023-06-14T05:45:26;17.00;81.30
53208;DHT22;39093;52.788;6.940;2023-06-14T05:47:53;17.00;81.90
53208;DHT22;39093;52.788;6.940;2023-06-14T05:50:21;17.10;81.50
53208;DHT22;39093;52.788;6.940;2023-06-14T05:52:48;17.10;81.20
53208;DHT22;39093;52.788;6.940;2023-06-14T05:55:16;17.20;81.70
53208;DHT22;39093;52.788;6.940;2023-06-14T05:57:44;17.30;81.00
53208;DHT22;39093;52.788;6.940;2023-06-14T06:00:11;17.30;80.80
53208;DHT22;39093;52.788;6.940;2023-06-14T06:02:43;17.40;80.20
53208;DHT22;39093;52.788;6.940;2023-06-14T06:05:11;17.40;79.80
53208;DHT22;39093;52.788;6.940;2023-06-14T06:07:39;17.50;80.10
53208;DHT22;39093;52.788;6.940;2023-06-14T06:10:12;17.50;79.80
53208;DHT22;39093;52.788;6.940;2023-06-14T06:12:39;17.60;79.50
53208;DHT22;39093;52.788;6.940;2023-06-14T06:15:06;17.70;79.20
53208;DHT22;39093;52.788;6.940;2023-06-14T06:17:34;17.70;79.10
53208;DHT22;39093;52.788;6.940;2023-06-14T06:20:22;17.80;78.90
53208;DHT22;39093;52.788;6.940;2023-06-14T06:22:54;17.90;78.40
53208;DHT22;39093;52.788;6.940;2023-06-14T06:25:22;18.20;78.60
53208;DHT22;39093;52.788;6.940;2023-06-14T06:27:49;18.60;78.30
53208;DHT22;39093;52.788;6.940;2023-06-14T06:30:16;19.00;78.00
53208;DHT22;39093;52.788;6.940;2023-06-14T06:32:43;19.40;77.60
53208;DHT22;39093;52.788;6.940;2023-06-14T06:35:10;19.70;77.40
53208;DHT22;39093;52.788;6.940;2023-06-14T06:37:38;20.00;76.80
53208;DHT22;39093;52.788;6.940;2023-06-14T06:40:05;20.30;76.60
53208;DHT22;39093;52.788;6.940;2023-06-14T06:42:32;20.50;75.50
53208;DHT22;39093;52.788;6.940;2023-06-14T06:45:00;20.70;75.50
53208;DHT22;39093;52.788;6.940;2023-06-14T06:47:27;20.90;75.40
53208;DHT22;39093;52.788;6.940;2023-06-14T06:49:53;21.10;74.40
53208;DHT22;39093;52.788;6.940;2023-06-14T06:52:20;21.30;74.60
53208;DHT22;39093;52.788;6.940;2023-06-14T06:54:47;21.50;74.60
53208;DHT22;39093;52.788;6.940;2023-06-14T06:57:15;21.70;72.50
53208;DHT22;39093;52.788;6.940;2023-06-14T06:59:42;21.90;71.30
53208;DHT22;39093;52.788;6.940;2023-06-14T07:02:09;22.00;71.50
53208;DHT22;39093;52.788;6.940;2023-06-14T07:04:36;22.10;71.30
53208;DHT22;39093;52.788;6.940;2023-06-14T07:07:03;22.20;70.80
53208;DHT22;39093;52.788;6.940;2023-06-14T07:09:30;22.30;70.10
53208;DHT22;39093;52.788;6.940;2023-06-14T07:11:57;22.40;70.80
53208;DHT22;39093;52.788;6.940;2023-06-14T07:14:24;22.50;69.80
53208;DHT22;39093;52.788;6.940;2023-06-14T07:16:51;22.40;68.80
53208;DHT22;39093;52.788;6.940;2023-06-14T07:19:18;22.40;68.50
53208;DHT22;39093;52.788;6.940;2023-06-14T07:21:45;22.50;68.30
53208;DHT22;39093;52.788;6.940;2023-06-14T07:24:13;22.50;69.10
53208;DHT22;39093;52.788;6.940;2023-06-14T07:26:40;22.60;67.60
53208;DHT22;39093;52.788;6.940;2023-06-14T07:29:07;22.60;68.30
53208;DHT22;39093;52.788;6.940;2023-06-14T07:31:34;22.70;67.90
53208;DHT22;39093;52.788;6.940;2023-06-14T07:34:01;22.90;68.50
53208;DHT22;39093;52.788;6.940;2023-06-14T07:36:28;23.00;68.20
53208;DHT22;39093;52.788;6.940;2023-06-14T07:38:55;23.20;68.10
53208;DHT22;39093;52.788;6.940;2023-06-14T07:41:22;23.20;68.10
53208;DHT22;39093;52.788;6.940;2023-06-14T07:43:49;23.30;64.90
53208;DHT22;39093;52.788;6.940;2023-06-14T07:46:16;23.30;65.40
53208;DHT22;39093;52.788;6.940;2023-06-14T07:48:43;23.30;65.30
53208;DHT22;39093;52.788;6.940;2023-06-14T07:51:11;23.40;65.40
53208;DHT22;39093;52.788;6.940;2023-06-14T07:53:37;23.50;64.40
53208;DHT22;39093;52.788;6.940;2023-06-14T07:56:04;23.50;65.20
53208;DHT22;39093;52.788;6.940;2023-06-14T07:58:31;23.50;65.70
53208;DHT22;39093;52.788;6.940;2023-06-14T08:00:58;23.60;64.80
53208;DHT22;39093;52.788;6.940;2023-06-14T08:03:26;23.50;63.90
53208;DHT22;39093;52.788;6.940;2023-06-14T08:05:53;23.50;65.00
53208;DHT22;39093;52.788;6.940;2023-06-14T08:08:20;23.70;65.60
53208;DHT22;39093;52.788;6.940;2023-06-14T08:10:48;23.70;65.50
53208;DHT22;39093;52.788;6.940;2023-06-14T08:13:15;23.80;65.30
53208;DHT22;39093;52.788;6.940;2023-06-14T08:15:41;23.90;64.20
53208;DHT22;39093;52.788;6.940;2023-06-14T08:18:10;23.90;64.70
53208;DHT22;39093;52.788;6.940;2023-06-14T08:20:37;23.90;64.60
53208;DHT22;39093;52.788;6.940;2023-06-14T08:23:04;23.90;64.10
53208;DHT22;39093;52.788;6.940;2023-06-14T08:25:31;24.00;64.60
53208;DHT22;39093;52.788;6.940;2023-06-14T08:27:58;24.20;63.10
53208;DHT22;39093;52.788;6.940;2023-06-14T08:30:25;24.20;63.20
53208;DHT22;39093;52.788;6.940;2023-06-14T08:32:52;24.10;62.30
53208;DHT22;39093;52.788;6.940;2023-06-14T08:35:41;24.10;61.30
53208;DHT22;39093;52.788;6.940;2023-06-14T08:38:08;24.00;60.50
53208;DHT22;39093;52.788;6.940;2023-06-14T08:40:37;24.00;61.30
53208;DHT22;39093;52.788;6.940;2023-06-14T08:43:05;24.10;61.00
53208;DHT22;39093;52.788;6.940;2023-06-14T08:45:32;24.10;60.20
53208;DHT22;39093;52.788;6.940;2023-06-14T08:48:00;24.10;59.10
53208;DHT22;39093;52.788;6.940;2023-06-14T08:50:32;24.10;60.90
53208;DHT22;39093;52.788;6.940;2023-06-14T08:53:01;24.10;61.70
53208;DHT22;39093;52.788;6.940;2023-06-14T08:55:31;24.20;60.70
53208;DHT22;39093;52.788;6.940;2023-06-14T08:58:03;24.20;60.60
53208;DHT22;39093;52.788;6.940;2023-06-14T09:00:32;24.10;60.50
53208;DHT22;39093;52.788;6.940;2023-06-14T09:03:00;24.10;61.80
53208;DHT22;39093;52.788;6.940;2023-06-14T09:05:28;24.20;60.60
53208;DHT22;39093;52.788;6.940;2023-06-14T09:07:55;24.20;61.80
53208;DHT22;39093;52.788;6.940;2023-06-14T09:10:32;24.20;60.90
53208;DHT22;39093;52.788;6.940;2023-06-14T09:13:05;24.30;61.90
53208;DHT22;39093;52.788;6.940;2023-06-14T09:15:35;24.30;60.00
53208;DHT22;39093;52.788;6.940;2023-06-14T09:18:02;24.30;60.60
53208;DHT22;39093;52.788;6.940;2023-06-14T09:20:30;24.30;60.90
53208;DHT22;39093;52.788;6.940;2023-06-14T09:22:58;24.40;59.70
53208;DHT22;39093;52.788;6.940;2023-06-14T09:25:25;24.30;59.40
53208;DHT22;39093;52.788;6.940;2023-06-14T09:28:07;24.40;59.20
53208;DHT22;39093;52.788;6.940;2023-06-14T09:30:36;24.50;58.90
53208;DHT22;39093;52.788;6.940;2023-06-14T09:33:03;24.50;58.90
53208;DHT22;39093;52.788;6.940;2023-06-14T09:35:34;24.50;59.30
53208;DHT22;39093;52.788;6.940;2023-06-14T09:38:01;24.50;58.70
53208;DHT22;39093;52.788;6.940;2023-06-14T09:40:28;24.50;58.20
53208;DHT22;39093;52.788;6.940;2023-06-14T09:42:55;24.60;57.60
53208;DHT22;39093;52.788;6.940;2023-06-14T09:45:25;24.60;56.40
53208;DHT22;39093;52.788;6.940;2023-06-14T09:47:57;24.60;58.20
53208;DHT22;39093;52.788;6.940;2023-06-14T09:50:34;24.70;57.00
53208;DHT22;39093;52.788;6.940;2023-06-14T09:53:10;24.70;57.20
53208;DHT22;39093;52.788;6.940;2023-06-14T09:55:37;24.90;56.80
53208;DHT22;39093;52.788;6.940;2023-06-14T09:58:08;24.80;57.50
53208;DHT22;39093;52.788;6.940;2023-06-14T10:00:39;24.80;57.80
53208;DHT22;39093;52.788;6.940;2023-06-14T10:03:14;24.90;58.20
53208;DHT22;39093;52.788;6.940;2023-06-14T10:05:45;25.00;57.90
53208;DHT22;39093;52.788;6.940;2023-06-14T10:08:15;25.00;57.20
53208;DHT22;39093;52.788;6.940;2023-06-14T10:10:46;25.10;57.80
53208;DHT22;39093;52.788;6.940;2023-06-14T10:13:14;25.20;57.90
53208;DHT22;39093;52.788;6.940;2023-06-14T10:15:48;25.20;57.80
53208;DHT22;39093;52.788;6.940;2023-06-14T10:21:20;25.60;57.70
53208;DHT22;39093;52.788;6.940;2023-06-14T10:23:49;25.70;58.40
53208;DHT22;39093;52.788;6.940;2023-06-14T10:26:22;25.80;58.40
53208;DHT22;39093;52.788;6.940;2023-06-14T10:29:09;25.90;58.10
53208;DHT22;39093;52.788;6.940;2023-06-14T10:31:47;25.90;56.30
53208;DHT22;39093;52.788;6.940;2023-06-14T10:34:28;25.90;57.00
53208;DHT22;39093;52.788;6.940;2023-06-14T10:37:08;25.90;60.10
53208;DHT22;39093;52.788;6.940;2023-06-14T10:39:41;26.10;57.00
53208;DHT22;39093;52.788;6.940;2023-06-14T10:42:08;26.50;54.80
53208;DHT22;39093;52.788;6.940;2023-06-14T10:47:29;26.40;57.00
53208;DHT22;39093;52.788;6.940;2023-06-14T10:50:09;26.50;56.50
53208;DHT22;39093;52.788;6.940;2023-06-14T10:52:42;26.50;55.50
53208;DHT22;39093;52.788;6.940;2023-06-14T10:57:48;26.60;56.40
53208;DHT22;39093;52.788;6.940;2023-06-14T11:00:21;26.60;55.40
53208;DHT22;39093;52.788;6.940;2023-06-14T11:05:27;26.50;55.70
53208;DHT22;39093;52.788;6.940;2023-06-14T11:10:41;26.60;56.90
53208;DHT22;39093;52.788;6.940;2023-06-14T11:13:12;26.60;55.40
53208;DHT22;39093;52.788;6.940;2023-06-14T11:15:44;26.60;55.50
53208;DHT22;39093;52.788;6.940;2023-06-14T11:18:12;26.60;57.80
53208;DHT22;39093;52.788;6.940;2023-06-14T11:20:40;26.70;57.30
53208;DHT22;39093;52.788;6.940;2023-06-14T11:23:07;26.90;56.40
53208;DHT22;39093;52.788;6.940;2023-06-14T11:25:34;27.10;56.30
53208;DHT22;39093;52.788;6.940;2023-06-14T11:28:01;27.20;55.70
53208;DHT22;39093;52.788;6.940;2023-06-14T11:30:28;27.20;55.10
53208;DHT22;39093;52.788;6.940;2023-06-14T11:32:57;27.30;55.70
53208;DHT22;39093;52.788;6.940;2023-06-14T11:35:25;27.40;54.60
53208;DHT22;39093;52.788;6.940;2023-06-14T11:37:56;27.40;55.10
53208;DHT22;39093;52.788;6.940;2023-06-14T11:40:27;27.60;55.00
53208;DHT22;39093;52.788;6.940;2023-06-14T11:42:59;27.50;54.90
53208;DHT22;39093;52.788;6.940;2023-06-14T11:45:27;27.50;54.70
53208;DHT22;39093;52.788;6.940;2023-06-14T11:47:58;27.50;55.70
53208;DHT22;39093;52.788;6.940;2023-06-14T11:50:26;27.40;54.30
53208;DHT22;39093;52.788;6.940;2023-06-14T11:52:54;27.50;54.90
53208;DHT22;39093;52.788;6.940;2023-06-14T11:55:23;27.50;55.00
53208;DHT22;39093;52.788;6.940;2023-06-14T11:57:50;27.80;55.70
53208;DHT22;39093;52.788;6.940;2023-06-14T12:00:18;28.00;55.10
53208;DHT22;39093;52.788;6.940;2023-06-14T12:02:53;28.10;55.00
53208;DHT22;39093;52.788;6.940;2023-06-14T12:05:23;28.40;55.60
53208;DHT22;39093;52.788;6.940;2023-06-14T12:07:57;28.60;55.30
53208;DHT22;39093;52.788;6.940;2023-06-14T12:10:26;28.70;52.40
53208;DHT22;39093;52.788;6.940;2023-06-14T12:12:59;28.50;54.20
53208;DHT22;39093;52.788;6.940;2023-06-14T12:15:29;28.40;55.10
53208;DHT22;39093;52.788;6.940;2023-06-14T12:17:57;28.50;55.40
53208;DHT22;39093;52.788;6.940;2023-06-14T12:20:29;28.60;55.20
53208;DHT22;39093;52.788;6.940;2023-06-14T12:22:58;28.60;54.70
53208;DHT22;39093;52.788;6.940;2023-06-14T12:25:34;28.80;56.00
53208;DHT22;39093;52.788;6.940;2023-06-14T12:28:07;29.20;54.10
53208;DHT22;39093;52.788;6.940;2023-06-14T12:30:39;29.10;53.60
53208;DHT22;39093;52.788;6.940;2023-06-14T12:33:06;29.20;54.30
53208;DHT22;39093;52.788;6.940;2023-06-14T12:35:34;29.30;55.00
53208;DHT22;39093;52.788;6.940;2023-06-14T12:38:01;29.40;54.70
53208;DHT22;39093;52.788;6.940;2023-06-14T12:40:30;29.70;54.00
53208;DHT22;39093;52.788;6.940;2023-06-14T12:42:57;29.60;53.10
53208;DHT22;39093;52.788;6.940;2023-06-14T12:45:24;29.60;53.90
53208;DHT22;39093;52.788;6.940;2023-06-14T12:47:51;29.90;55.10
53208;DHT22;39093;52.788;6.940;2023-06-14T12:50:18;30.00;54.20
53208;DHT22;39093;52.788;6.940;2023-06-14T12:52:48;30.00;52.60
53208;DHT22;39093;52.788;6.940;2023-06-14T12:55:15;30.00;53.00
53208;DHT22;39093;52.788;6.940;2023-06-14T12:57:43;30.00;53.40
53208;DHT22;39093;52.788;6.940;2023-06-14T13:00:10;30.20;54.80
53208;DHT22;39093;52.788;6.940;2023-06-14T13:02:37;30.30;53.30
53208;DHT22;39093;52.788;6.940;2023-06-14T13:05:05;30.00;52.60
53208;DHT22;39093;52.788;6.940;2023-06-14T13:07:32;30.10;53.50
53208;DHT22;39093;52.788;6.940;2023-06-14T13:09:59;30.40;53.70
53208;DHT22;39093;52.788;6.940;2023-06-14T13:12:26;30.60;53.80
53208;DHT22;39093;52.788;6.940;2023-06-14T13:14:53;30.90;54.80
53208;DHT22;39093;52.788;6.940;2023-06-14T13:17:20;30.90;51.90
53208;DHT22;39093;52.788;6.940;2023-06-14T13:19:47;30.40;52.30
53208;DHT22;39093;52.788;6.940;2023-06-14T13:22:13;30.70;53.20
53208;DHT22;39093;52.788;6.940;2023-06-14T13:24:40;31.10;52.80
53208;DHT22;39093;52.788;6.940;2023-06-14T13:27:07;31.40;54.20
53208;DHT22;39093;52.788;6.940;2023-06-14T13:29:34;31.70;53.80
53208;DHT22;39093;52.788;6.940;2023-06-14T13:32:03;32.00;52.30
53208;DHT22;39093;52.788;6.940;2023-06-14T13:34:30;32.10;52.70
53208;DHT22;39093;52.788;6.940;2023-06-14T13:36:57;32.50;52.30
53208;DHT22;39093;52.788;6.940;2023-06-14T13:39:26;32.90;51.00
53208;DHT22;39093;52.788;6.940;2023-06-14T13:41:53;33.10;52.00
53208;DHT22;39093;52.788;6.940;2023-06-14T13:44:20;33.30;50.30
53208;DHT22;39093;52.788;6.940;2023-06-14T13:46:48;32.50;49.70
53208;DHT22;39093;52.788;6.940;2023-06-14T13:49:15;31.90;52.00
53208;DHT22;39093;52.788;6.940;2023-06-14T13:51:42;32.00;51.90
53208;DHT22;39093;52.788;6.940;2023-06-14T13:54:11;31.80;51.30
53208;DHT22;39093;52.788;6.940;2023-06-14T13:56:39;31.40;50.60
53208;DHT22;39093;52.788;6.940;2023-06-14T13:59:06;31.10;50.60
53208;DHT22;39093;52.788;6.940;2023-06-14T14:01:33;31.30;51.60
53208;DHT22;39093;52.788;6.940;2023-06-14T14:04:00;31.80;51.70
53208;DHT22;39093;52.788;6.940;2023-06-14T14:06:27;32.10;51.00
53208;DHT22;39093;52.788;6.940;2023-06-14T14:08:54;32.60;50.50
53208;DHT22;39093;52.788;6.940;2023-06-14T14:11:21;32.90;50.30
53208;DHT22;39093;52.788;6.940;2023-06-14T14:13:48;33.00;50.50
53208;DHT22;39093;52.788;6.940;2023-06-14T14:16:15;33.30;49.90
53208;DHT22;39093;52.788;6.940;2023-06-14T14:18:43;33.40;49.50
53208;DHT22;39093;52.788;6.940;2023-06-14T14:21:10;33.20;49.10
53208;DHT22;39093;52.788;6.940;2023-06-14T14:23:37;32.40;49.20
53208;DHT22;39093;52.788;6.940;2023-06-14T14:26:07;32.00;49.50
53208;DHT22;39093;52.788;6.940;2023-06-14T14:28:34;32.00;49.70
53208;DHT22;39093;52.788;6.940;2023-06-14T14:31:01;32.20;50.00
53208;DHT22;39093;52.788;6.940;2023-06-14T14:33:28;32.60;49.30
53208;DHT22;39093;52.788;6.940;2023-06-14T14:35:55;32.90;50.90
53208;DHT22;39093;52.788;6.940;2023-06-14T14:38:22;33.50;49.30
53208;DHT22;39093;52.788;6.940;2023-06-14T14:40:49;33.60;50.70
53208;DHT22;39093;52.788;6.940;2023-06-14T14:43:23;33.40;48.90
53208;DHT22;39093;52.788;6.940;2023-06-14T14:45:50;33.30;49.30
53208;DHT22;39093;52.788;6.940;2023-06-14T14:48:17;33.70;49.20
53208;DHT22;39093;52.788;6.940;2023-06-14T14:50:44;33.50;49.00
53208;DHT22;39093;52.788;6.940;2023-06-14T14:53:11;32.90;48.30
53208;DHT22;39093;52.788;6.940;2023-06-14T14:55:38;32.10;49.20
53208;DHT22;39093;52.788;6.940;2023-06-14T14:58:06;31.60;49.10
53208;DHT22;39093;52.788;6.940;2023-06-14T15:00:35;31.60;49.40
53208;DHT22;39093;52.788;6.940;2023-06-14T15:03:02;31.90;50.50
53208;DHT22;39093;52.788;6.940;2023-06-14T15:05:29;32.20;50.20
53208;DHT22;39093;52.788;6.940;2023-06-14T15:07:56;32.70;50.10
53208;DHT22;39093;52.788;6.940;2023-06-14T15:10:23;32.90;49.20
53208;DHT22;39093;52.788;6.940;2023-06-14T15:12:50;32.90;49.50
53208;DHT22;39093;52.788;6.940;2023-06-14T15:15:17;32.90;48.10
53208;DHT22;39093;52.788;6.940;2023-06-14T15:17:44;32.70;49.20
53208;DHT22;39093;52.788;6.940;2023-06-14T15:20:12;32.70;48.30
53208;DHT22;39093;52.788;6.940;2023-06-14T15:22:41;32.30;48.60
53208;DHT22;39093;52.788;6.940;2023-06-14T15:25:08;31.50;48.40
53208;DHT22;39093;52.788;6.940;2023-06-14T15:27:35;31.10;49.20
53208;DHT22;39093;52.788;6.940;2023-06-14T15:30:03;31.10;51.30
53208;DHT22;39093;52.788;6.940;2023-06-14T15:32:30;31.20;49.80
53208;DHT22;39093;52.788;6.940;2023-06-14T15:34:57;31.10;49.40
53208;DHT22;39093;52.788;6.940;2023-06-14T15:37:24;30.90;50.20
53208;DHT22;39093;52.788;6.940;2023-06-14T15:39:51;30.70;50.20
53208;DHT22;39093;52.788;6.940;2023-06-14T15:42:18;30.30;50.00
53208;DHT22;39093;52.788;6.940;2023-06-14T15:44:45;29.90;49.90
53208;DHT22;39093;52.788;6.940;2023-06-14T15:47:14;29.50;50.20
53208;DHT22;39093;52.788;6.940;2023-06-14T15:49:41;29.10;50.00
53208;DHT22;39093;52.788;6.940;2023-06-14T15:52:07;28.70;50.70